createdAt,value
2019-04-11T00:01:46.900Z,16.83
2019-04-11T00:05:23.685Z,14.77
2019-04-11T00:07:58.052Z,18.10
2019-04-11T00:10:39.573Z,15.87
2019-04-11T00:13:24.389Z,15.20
2019-04-11T00:15:53.539Z,14.10
2019-04-11T00:18:25.328Z,18.63
2019-04-11T00:21:42.833Z,15.10
2019-04-11T00:24:20.954Z,15.00
2019-04-11T00:26:54.896Z,16.80
2019-04-11T00:29:28.469Z,16.50
2019-04-11T00:32:01.117Z,14.67
2019-04-11T00:34:37.346Z,16.23
2019-04-11T00:37:08.672Z,13.53
2019-04-11T00:39:40.654Z,13.07
2019-04-11T00:42:18.711Z,15.40
2019-04-11T00:44:51.386Z,14.07
2019-04-11T00:47:25.470Z,16.93
2019-04-11T00:49:56.924Z,14.83
2019-04-11T00:52:49.743Z,12.30
2019-04-11T00:55:23.838Z,15.73
2019-04-11T00:57:59.237Z,13.43
2019-04-11T01:00:33.684Z,12.70
2019-04-11T01:03:20.114Z,14.43
2019-04-11T01:05:51.726Z,15.33
2019-04-11T01:08:35.727Z,18.23
2019-04-11T01:11:13.952Z,14.30
2019-04-11T01:13:55.278Z,14.47
2019-04-11T01:16:43.042Z,13.40
2019-04-11T01:19:40.612Z,13.83
2019-04-11T01:22:14.228Z,14.17
2019-04-11T01:24:46.526Z,13.33
2019-04-11T01:27:34.100Z,15.33
2019-04-11T01:30:08.190Z,16.60
2019-04-11T01:32:40.735Z,12.67
2019-04-11T01:35:13.360Z,13.10
2019-04-11T01:37:46.129Z,14.47
2019-04-11T01:41:10.037Z,16.10
2019-04-11T01:44:13.127Z,13.60
2019-04-11T01:46:49.353Z,14.23
2019-04-11T01:49:48.808Z,14.13
2019-04-11T01:52:20.329Z,17.30
2019-04-11T01:54:52.852Z,13.30
2019-04-11T01:57:29.717Z,15.13
2019-04-11T02:00:12.484Z,14.73
2019-04-11T02:02:50.858Z,18.53
2019-04-11T02:05:29.397Z,14.70
2019-04-11T02:08:00.856Z,13.63
2019-04-11T02:10:32.833Z,14.57
2019-04-11T02:13:03.851Z,12.57
2019-04-11T02:15:36.654Z,12.43
2019-04-11T02:18:07.712Z,14.80
2019-04-11T02:20:39.085Z,16.13
2019-04-11T02:23:15.106Z,14.50
2019-04-11T02:25:54.899Z,15.33
2019-04-11T02:28:25.688Z,14.67
2019-04-11T02:30:57.819Z,14.47
2019-04-11T02:36:45.085Z,13.93
2019-04-11T02:39:19.589Z,15.40
2019-04-11T02:41:50.784Z,15.77
2019-04-11T02:44:45.494Z,15.03
2019-04-11T02:47:01.754Z,13.07
2019-04-11T02:49:28.014Z,13.67
2019-04-11T02:52:00.637Z,12.60
2019-04-11T02:54:33.533Z,15.17
2019-04-11T02:57:05.894Z,14.63
2019-04-11T02:59:38.766Z,15.37
2019-04-11T03:02:13.009Z,14.27
2019-04-11T03:04:43.924Z,15.33
2019-04-11T03:07:24.609Z,16.50
2019-04-11T03:09:56.504Z,12.30
2019-04-11T03:12:29.584Z,14.70
2019-04-11T03:15:16.688Z,16.73
2019-04-11T03:17:38.481Z,13.13
2019-04-11T03:20:20.933Z,14.87
2019-04-11T03:22:42.524Z,14.33
2019-04-11T03:25:22.543Z,16.30
2019-04-11T03:27:54.182Z,14.37
2019-04-11T03:30:42.130Z,16.03
2019-04-11T03:33:58.247Z,12.27
2019-04-11T03:36:28.990Z,12.47
2019-04-11T03:38:33.119Z,15.90
2019-04-11T03:40:59.594Z,14.57
2019-04-11T03:43:26.145Z,15.20
2019-04-11T03:46:11.898Z,15.63
2019-04-11T03:48:39.828Z,13.80
2019-04-11T03:50:57.414Z,18.83
2019-04-11T03:53:29.929Z,15.80
2019-04-11T03:56:03.642Z,14.47
2019-04-11T03:58:34.942Z,17.07
2019-04-11T04:01:10.942Z,13.40
2019-04-11T04:03:48.863Z,14.70
2019-04-11T04:06:19.138Z,14.70
2019-04-11T04:08:50.880Z,12.50
2019-04-11T04:11:27.116Z,12.60
2019-04-11T04:14:19.936Z,18.63
2019-04-11T04:17:19.158Z,11.33
2019-04-11T04:20:08.825Z,17.60
2019-04-11T04:22:49.703Z,15.97
2019-04-11T04:25:21.489Z,16.97
2019-04-11T04:27:54.671Z,14.43
2019-04-11T04:30:27.667Z,16.50
2019-04-11T04:33:20.184Z,15.53
2019-04-11T04:35:52.443Z,15.70
2019-04-11T04:38:31.574Z,20.00
2019-04-11T04:41:16.934Z,15.57
2019-04-11T04:43:38.830Z,16.37
2019-04-11T04:46:38.146Z,17.70
2019-04-11T04:48:51.559Z,19.07
2019-04-11T04:51:24.602Z,18.70
2019-04-11T04:53:57.863Z,21.27
2019-04-11T04:56:41.951Z,17.37
2019-04-11T04:59:14.612Z,20.07
2019-04-11T05:17:36.392Z,17.20
2019-04-11T05:23:21.404Z,15.80
2019-04-11T05:26:21.573Z,15.80
2019-04-11T05:29:19.615Z,16.07
2019-04-11T05:31:59.403Z,13.93
2019-04-11T05:34:32.789Z,20.30
2019-04-11T05:40:57.084Z,18.90
2019-04-11T05:47:14.532Z,14.83
2019-04-11T05:50:09.215Z,18.63
2019-04-11T05:52:50.382Z,17.17
2019-04-11T05:55:55.279Z,14.40
2019-04-11T05:59:24.449Z,16.13
2019-04-11T06:02:07.633Z,16.67
2019-04-11T06:04:50.109Z,17.47
2019-04-11T06:08:21.118Z,20.27
2019-04-11T06:11:23.676Z,15.10
2019-04-11T06:14:13.192Z,17.00
2019-04-11T06:16:57.603Z,15.60
2019-04-11T06:20:02.126Z,17.93
2019-04-11T06:22:42.191Z,17.17
2019-04-11T06:25:39.068Z,17.27
2019-04-11T06:28:28.964Z,16.93
2019-04-11T06:31:24.541Z,18.40
2019-04-11T06:34:07.195Z,20.30
2019-04-11T06:37:12.085Z,16.37
2019-04-11T06:40:07.844Z,17.77
2019-04-11T06:42:57.586Z,15.60
2019-04-11T06:45:59.127Z,17.23
2019-04-11T06:48:54.483Z,20.07
2019-04-11T06:51:32.341Z,22.27
2019-04-11T06:54:21.778Z,16.70
2019-04-11T06:56:53.817Z,18.17
2019-04-11T06:59:28.387Z,17.97
2019-04-11T07:02:11.578Z,18.10
2019-04-11T07:04:42.166Z,18.60
2019-04-11T07:07:13.408Z,18.27
2019-04-11T07:09:49.219Z,16.47
2019-04-11T07:12:38.575Z,19.93
2019-04-11T07:15:14.437Z,17.53
2019-04-11T07:18:06.073Z,16.57
2019-04-11T07:21:04.027Z,17.43
2019-04-11T07:23:53.411Z,21.27
2019-04-11T07:26:48.677Z,20.50
2019-04-11T07:29:37.915Z,19.03
2019-04-11T07:32:17.942Z,17.50
2019-04-11T07:35:06.383Z,16.03
2019-04-11T07:37:49.163Z,18.07
2019-04-11T07:40:39.469Z,18.97
2019-04-11T07:43:17.591Z,17.87
2019-04-11T07:46:10.170Z,15.23
2019-04-11T07:48:44.626Z,16.53
2019-04-11T07:51:40.873Z,16.67
2019-04-11T07:54:22.828Z,14.73
2019-04-11T07:56:55.917Z,17.43
2019-04-11T07:59:46.810Z,16.57
2019-04-11T08:02:35.514Z,18.20
2019-04-11T08:05:30.229Z,18.30
2019-04-11T08:08:26.808Z,14.47
2019-04-11T08:11:06.779Z,16.03
2019-04-11T08:13:56.286Z,15.93
2019-04-11T08:16:53.238Z,15.80
2019-04-11T08:19:42.769Z,15.93
2019-04-11T08:22:35.857Z,16.60
2019-04-11T08:25:25.118Z,11.73
2019-04-11T08:28:01.313Z,13.80
2019-04-11T08:30:39.926Z,15.37
2019-04-11T08:33:10.830Z,14.67
2019-04-11T08:36:02.000Z,12.83
2019-04-11T08:38:34.649Z,13.90
2019-04-11T08:41:27.509Z,13.87
2019-04-11T08:43:59.459Z,13.93
2019-04-11T08:47:41.938Z,12.97
2019-04-11T08:50:02.508Z,14.10
2019-04-11T08:53:37.203Z,12.40
2019-04-11T08:56:24.794Z,15.27
2019-04-11T08:59:47.215Z,13.93
2019-04-11T09:02:22.190Z,11.50
2019-04-11T09:05:19.657Z,14.17
2019-04-11T09:08:20.415Z,12.80
2019-04-11T09:11:15.096Z,15.27
2019-04-11T09:14:12.304Z,14.03
2019-04-11T09:17:05.905Z,14.03
2019-04-11T09:19:49.336Z,15.27
2019-04-11T09:22:33.109Z,16.23
2019-04-11T09:25:37.606Z,15.70
2019-04-11T09:28:19.698Z,14.90
2019-04-11T09:31:25.463Z,15.23
2019-04-11T09:34:18.186Z,14.83
2019-04-11T09:37:06.238Z,18.33
2019-04-11T09:40:24.288Z,15.43
2019-04-11T09:43:11.514Z,15.53
2019-04-11T09:46:10.378Z,16.20
2019-04-11T09:48:54.546Z,15.33
2019-04-11T09:51:38.067Z,16.30
2019-04-11T09:54:24.002Z,14.43
2019-04-11T09:57:17.069Z,17.47
2019-04-11T10:00:12.397Z,15.93
2019-04-11T10:02:54.335Z,15.30
2019-04-11T10:05:36.833Z,17.00
2019-04-11T10:08:33.134Z,18.87
2019-04-11T10:11:34.469Z,13.83
2019-04-11T10:14:09.313Z,14.87
2019-04-11T10:16:58.168Z,16.27
2019-04-11T10:19:58.305Z,14.90
2019-04-11T10:22:49.023Z,17.07
2019-04-11T10:25:30.251Z,16.10
2019-04-11T10:28:29.878Z,15.27
2019-04-11T10:31:12.653Z,15.47
2019-04-11T10:34:14.733Z,14.73
2019-04-11T10:37:09.741Z,14.57
2019-04-11T10:40:00.122Z,18.73
2019-04-11T10:42:32.725Z,16.77
2019-04-11T10:46:09.239Z,17.53
2019-04-11T10:49:05.373Z,19.67
2019-04-11T10:52:08.470Z,18.47
2019-04-11T10:54:41.122Z,16.80
2019-04-11T10:57:44.650Z,17.03
2019-04-11T11:00:37.610Z,17.13
2019-04-11T11:03:24.426Z,20.93
2019-04-11T11:09:37.798Z,17.17
2019-04-11T11:12:51.863Z,18.80
2019-04-11T11:15:33.972Z,18.93
2019-04-11T11:21:07.445Z,19.00
2019-04-11T11:24:07.170Z,22.40
2019-04-11T11:26:39.119Z,21.10
2019-04-11T11:29:37.140Z,23.73
2019-04-11T11:32:13.250Z,18.20
2019-04-11T11:34:53.384Z,19.93
2019-04-11T11:37:41.877Z,20.83
2019-04-11T11:40:50.085Z,22.03
2019-04-11T11:43:25.942Z,21.53
2019-04-11T11:46:16.116Z,20.37
2019-04-11T11:48:54.066Z,22.77
2019-04-11T11:52:24.893Z,22.17
2019-04-11T11:54:59.844Z,22.67
2019-04-11T11:57:44.854Z,22.40
2019-04-11T12:00:33.379Z,18.83
2019-04-11T12:03:35.263Z,21.03
2019-04-11T12:06:59.757Z,19.43
2019-04-11T12:09:42.513Z,20.60
2019-04-11T12:12:21.911Z,20.77
2019-04-11T12:15:22.469Z,18.50
2019-04-11T12:18:18.071Z,20.60
2019-04-11T12:20:56.277Z,21.80
2019-04-11T12:23:48.712Z,21.33
2019-04-11T12:26:12.545Z,19.50
2019-04-11T12:29:08.303Z,23.33
2019-04-11T12:31:40.326Z,20.63
2019-04-11T12:34:30.296Z,20.43
2019-04-11T12:37:06.191Z,20.97
2019-04-11T12:39:59.137Z,19.83
2019-04-11T12:42:33.583Z,18.13
2019-04-11T12:45:44.281Z,18.10
2019-04-11T12:48:15.623Z,18.53
2019-04-11T12:51:03.974Z,20.27
2019-04-11T12:53:34.680Z,17.90
2019-04-11T12:56:24.173Z,18.97
2019-04-11T12:59:19.761Z,19.67
2019-04-11T13:02:08.150Z,18.93
2019-04-11T13:04:45.019Z,21.87
2019-04-11T13:07:34.632Z,20.93
2019-04-11T13:10:24.171Z,21.90
2019-04-11T13:13:20.470Z,23.00
2019-04-11T13:16:12.212Z,20.93
2019-04-11T13:19:00.345Z,22.13
2019-04-11T13:21:56.124Z,24.57
2019-04-11T13:24:48.634Z,21.17
2019-04-11T13:27:25.168Z,19.07
2019-04-11T13:30:18.179Z,22.23
2019-04-11T13:33:03.736Z,20.30
2019-04-11T13:36:02.882Z,22.57
2019-04-11T13:38:41.936Z,22.13
2019-04-11T13:41:44.033Z,18.77
2019-04-11T13:44:19.918Z,21.20
2019-04-11T13:47:20.442Z,19.93
2019-04-11T13:49:53.582Z,17.07
2019-04-11T13:52:46.551Z,19.07
2019-04-11T13:55:28.272Z,19.70
2019-04-11T13:58:18.891Z,17.13
2019-04-11T14:00:51.467Z,17.37
2019-04-11T14:03:44.142Z,16.40
2019-04-11T14:06:25.640Z,14.27
2019-04-11T14:09:22.067Z,13.87
2019-04-11T14:11:54.538Z,15.43
2019-04-11T14:15:05.988Z,15.00
2019-04-11T14:18:12.208Z,14.87
2019-04-11T14:20:51.934Z,17.10
2019-04-11T14:23:45.281Z,15.60
2019-04-11T14:26:36.348Z,15.27
2019-04-11T14:29:26.620Z,17.30
2019-04-11T14:32:34.535Z,18.97
2019-04-11T14:35:39.735Z,18.63
2019-04-11T14:38:12.666Z,14.97
2019-04-11T14:41:05.170Z,15.87
2019-04-11T14:43:38.876Z,16.73
2019-04-11T14:46:28.655Z,16.03
2019-04-11T14:49:10.431Z,17.07
2019-04-11T14:51:58.703Z,14.93
2019-04-11T14:54:49.856Z,18.33
2019-04-11T14:57:54.620Z,14.40
2019-04-11T15:00:36.615Z,16.40
2019-04-11T15:03:35.313Z,15.67
2019-04-11T15:06:34.660Z,15.17
2019-04-11T15:09:31.947Z,16.03
2019-04-11T15:12:23.184Z,17.67
2019-04-11T15:15:15.869Z,14.97
2019-04-11T15:17:47.161Z,18.17
2019-04-11T15:20:42.376Z,16.33
2019-04-11T15:23:24.706Z,14.47
2019-04-11T15:26:14.446Z,15.63
2019-04-11T15:29:07.318Z,16.23
2019-04-11T15:31:55.764Z,17.53
2019-04-11T15:34:38.547Z,16.20
2019-04-11T15:37:28.642Z,15.97
2019-04-11T15:40:15.011Z,14.70
2019-04-11T15:42:57.379Z,16.67
2019-04-11T15:45:53.503Z,16.93
2019-04-11T15:49:49.153Z,16.03
2019-04-11T15:52:30.507Z,16.33
2019-04-11T15:55:24.533Z,14.33
2019-04-11T15:57:57.393Z,16.57
2019-04-11T16:01:04.054Z,15.77
2019-04-11T16:03:37.872Z,14.70
2019-04-11T16:06:26.245Z,15.73
2019-04-11T16:09:00.556Z,16.20
2019-04-11T16:11:53.843Z,14.53
2019-04-11T16:14:36.142Z,15.77
2019-04-11T16:17:35.175Z,16.87
2019-04-11T16:20:29.439Z,19.93
2019-04-11T16:23:27.044Z,18.40
2019-04-11T16:26:09.582Z,18.17
2019-04-11T16:29:12.993Z,18.63
2019-04-11T16:31:52.897Z,18.70
2019-04-11T16:34:51.561Z,21.57
2019-04-11T16:37:21.571Z,22.33
2019-04-11T16:40:11.131Z,18.93
2019-04-11T16:42:44.504Z,19.77
2019-04-11T16:45:37.837Z,20.77
2019-04-11T16:49:01.898Z,25.77
2019-04-11T16:51:42.303Z,20.53
2019-04-11T16:54:15.626Z,21.50
2019-04-11T16:56:46.830Z,21.67
2019-04-11T16:59:17.840Z,19.40
2019-04-11T17:01:53.416Z,19.20
2019-04-11T17:04:25.814Z,17.30
2019-04-11T17:07:26.633Z,18.03
2019-04-11T17:09:57.942Z,18.70
2019-04-11T17:12:57.978Z,20.37
2019-04-11T17:18:45.526Z,22.37
2019-04-11T17:21:18.747Z,20.37
2019-04-11T17:23:53.773Z,18.00
2019-04-11T17:27:47.080Z,21.17
2019-04-11T17:30:38.626Z,20.07
2019-04-11T17:33:29.257Z,21.43
2019-04-11T17:36:06.179Z,21.17
2019-04-11T17:38:39.122Z,21.90
2019-04-11T17:41:11.984Z,21.10
2019-04-11T17:43:46.706Z,25.00
2019-04-11T17:46:16.460Z,21.33
2019-04-11T17:48:50.246Z,19.87
2019-04-11T17:51:20.330Z,18.10
2019-04-11T17:53:55.552Z,19.97
2019-04-11T17:56:41.209Z,18.33
2019-04-11T18:02:36.499Z,19.00
2019-04-11T18:05:07.996Z,18.90
2019-04-11T18:07:41.361Z,18.70
2019-04-11T18:10:12.860Z,16.30
2019-04-11T18:12:43.909Z,17.67
2019-04-11T18:15:15.608Z,18.73
2019-04-11T18:17:46.843Z,18.33
2019-04-11T18:20:18.657Z,18.57
2019-04-11T18:26:29.032Z,17.50
2019-04-11T18:29:00.041Z,16.83
2019-04-11T18:31:30.868Z,19.30
2019-04-11T18:34:03.210Z,21.67
2019-04-11T18:36:37.240Z,19.43
2019-04-11T18:39:08.604Z,17.53
2019-04-11T18:41:39.524Z,16.83
2019-04-11T18:44:10.901Z,17.37
2019-04-11T18:46:42.697Z,18.37
2019-04-11T18:49:14.060Z,20.77
2019-04-11T18:51:45.608Z,18.37
2019-04-11T18:54:16.503Z,17.47
2019-04-11T18:56:47.591Z,21.53
2019-04-11T18:59:18.557Z,15.10
2019-04-11T19:01:50.006Z,19.00
2019-04-11T19:04:31.786Z,17.37
2019-04-11T19:06:54.414Z,19.47
2019-04-11T19:09:25.266Z,17.27
2019-04-11T19:12:00.043Z,19.97
2019-04-11T19:14:30.845Z,16.73
2019-04-11T19:17:02.073Z,16.80
2019-04-11T19:19:34.515Z,16.97
2019-04-11T19:22:06.682Z,18.20
2019-04-11T19:24:42.497Z,19.80
2019-04-11T19:27:58.255Z,19.10
2019-04-11T19:30:31.069Z,14.27
2019-04-11T19:39:06.467Z,19.67
2019-04-11T19:41:48.103Z,16.63
2019-04-11T19:44:21.357Z,14.63
2019-04-11T19:47:58.295Z,19.80
2019-04-11T19:50:30.987Z,15.37
2019-04-11T19:54:17.090Z,14.53
2019-04-11T19:57:04.947Z,17.43
2019-04-11T20:03:10.119Z,16.20
2019-04-11T20:09:11.808Z,15.97
2019-04-11T20:11:44.933Z,14.47
2019-04-11T20:14:18.361Z,14.73
2019-04-11T20:16:52.582Z,13.80
2019-04-11T20:19:27.350Z,14.27
2019-04-11T20:22:02.765Z,15.97
2019-04-11T20:24:54.792Z,16.27
2019-04-11T20:27:39.829Z,14.23
2019-04-11T20:30:53.163Z,14.40
2019-04-11T20:33:27.393Z,15.17
2019-04-11T20:35:58.960Z,14.63
2019-04-11T20:38:31.535Z,16.17
2019-04-11T20:44:37.323Z,15.87
2019-04-11T20:47:40.317Z,12.30
2019-04-11T20:50:14.593Z,15.20
2019-04-11T20:52:47.104Z,15.87
2019-04-11T20:56:24.186Z,15.17
2019-04-11T20:58:54.358Z,15.90
2019-04-11T21:01:28.761Z,14.50
2019-04-11T21:04:06.066Z,15.80
2019-04-11T21:06:41.464Z,12.80
2019-04-11T21:09:19.563Z,15.13
2019-04-11T21:15:06.601Z,11.97
2019-04-11T21:18:30.712Z,13.73
2019-04-11T21:21:12.692Z,13.53
2019-04-11T21:29:14.386Z,19.40
2019-04-11T21:31:56.604Z,14.63
2019-04-11T21:34:37.880Z,12.00
2019-04-11T21:37:13.921Z,12.67
2019-04-11T21:45:26.815Z,19.60
2019-04-11T21:51:03.976Z,14.60
2019-04-11T21:53:36.732Z,12.47
2019-04-11T21:56:11.138Z,12.97
2019-04-11T21:58:49.914Z,14.63
2019-04-11T22:01:21.960Z,15.20
2019-04-11T22:12:07.659Z,12.63
2019-04-11T22:14:41.344Z,13.77
2019-04-11T22:17:15.923Z,17.87
2019-04-11T22:19:50.123Z,14.20
2019-04-11T22:22:39.859Z,11.67
2019-04-11T22:25:18.326Z,14.23
2019-04-11T22:27:51.051Z,15.20
2019-04-11T22:30:26.009Z,13.03
2019-04-11T22:33:24.842Z,13.10
2019-04-11T22:35:59.340Z,14.57
2019-04-11T22:41:57.991Z,15.47
2019-04-11T22:47:12.668Z,12.93
2019-04-11T22:50:17.823Z,12.00
2019-04-11T22:53:12.818Z,15.70
2019-04-11T22:55:41.335Z,13.43
2019-04-11T23:02:00.761Z,14.10
2019-04-11T23:04:54.907Z,15.67
2019-04-11T23:07:29.681Z,15.00
2019-04-11T23:12:46.536Z,15.43
2019-04-11T23:15:22.572Z,14.03
2019-04-11T23:18:35.837Z,18.30
2019-04-11T23:21:08.717Z,13.70
2019-04-11T23:23:49.538Z,16.07
2019-04-11T23:26:22.682Z,14.20
2019-04-11T23:28:56.776Z,14.17
2019-04-11T23:31:29.560Z,14.70
2019-04-11T23:34:01.392Z,17.17
2019-04-11T23:36:32.741Z,13.37
2019-04-11T23:39:05.982Z,13.87
2019-04-11T23:44:20.324Z,15.40
2019-04-11T23:46:51.995Z,13.37
2019-04-11T23:49:25.225Z,11.97
2019-04-11T23:51:56.548Z,14.30
2019-04-11T23:54:29.254Z,16.73
2019-04-11T23:57:01.079Z,14.20
2019-04-11T23:59:32.811Z,16.20
